createdAt,value
2022-08-26T00:01:54.180Z,16.15
2022-08-26T00:04:25.432Z,21.80
2022-08-26T00:06:54.300Z,28.27
2022-08-26T00:09:21.571Z,18.45
2022-08-26T00:11:48.878Z,29.23
2022-08-26T00:14:16.558Z,22.98
2022-08-26T00:16:47.171Z,23.35
2022-08-26T00:19:20.952Z,23.70
2022-08-26T00:21:49.633Z,23.58
2022-08-26T00:24:18.476Z,22.80
2022-08-26T00:26:45.690Z,26.52
2022-08-26T00:29:16.101Z,20.40
2022-08-26T00:31:45.254Z,18.63
2022-08-26T00:34:15.332Z,27.60
2022-08-26T00:36:43.081Z,18.60
2022-08-26T00:39:10.639Z,22.20
2022-08-26T00:41:39.862Z,20.20
2022-08-26T00:44:08.424Z,22.35
2022-08-26T00:46:46.498Z,20.40
2022-08-26T00:49:17.073Z,21.27
2022-08-26T00:51:50.902Z,21.00
2022-08-26T00:54:21.291Z,25.50
2022-08-26T00:56:59.955Z,25.13
2022-08-26T00:59:29.241Z,20.33
2022-08-26T01:02:02.871Z,18.75
2022-08-26T01:04:33.469Z,19.92
2022-08-26T01:07:01.457Z,18.23
2022-08-26T01:09:30.413Z,26.63
2022-08-26T01:12:00.644Z,21.63
2022-08-26T01:14:32.651Z,20.40
2022-08-26T01:17:02.878Z,23.05
2022-08-26T01:19:41.265Z,18.50
2022-08-26T01:22:15.943Z,25.50
2022-08-26T01:24:43.877Z,20.67
2022-08-26T01:27:15.456Z,18.10
2022-08-26T01:29:44.821Z,19.60
2022-08-26T01:32:16.041Z,21.08
2022-08-26T01:34:43.239Z,24.80
2022-08-26T01:37:15.993Z,20.92
2022-08-26T01:39:46.871Z,21.55
2022-08-26T01:42:15.665Z,22.88
2022-08-26T01:44:51.554Z,17.45
2022-08-26T01:47:21.599Z,17.20
2022-08-26T01:49:53.652Z,23.13
2022-08-26T01:52:28.065Z,19.08
2022-08-26T01:54:59.044Z,22.10
2022-08-26T01:57:28.427Z,14.60
2022-08-26T02:00:01.083Z,19.20
2022-08-26T02:02:29.025Z,27.08
2022-08-26T02:05:03.534Z,26.45
2022-08-26T02:07:33.252Z,21.73
2022-08-26T02:10:00.679Z,20.85
2022-08-26T02:12:27.863Z,23.92
2022-08-26T02:14:58.005Z,19.80
2022-08-26T02:17:42.615Z,29.10
2022-08-26T02:20:15.708Z,22.33
2022-08-26T02:22:45.039Z,21.33
2022-08-26T02:25:43.114Z,14.75
2022-08-26T02:28:12.381Z,21.80
2022-08-26T02:30:41.094Z,18.73
2022-08-26T02:33:08.176Z,24.75
2022-08-26T02:35:37.348Z,26.33
2022-08-26T02:38:10.271Z,26.25
2022-08-26T02:40:41.116Z,20.13
2022-08-26T02:43:09.716Z,20.55
2022-08-26T02:45:37.064Z,22.58
2022-08-26T02:48:17.189Z,25.30
2022-08-26T02:50:46.126Z,31.25
2022-08-26T02:53:14.385Z,23.10
2022-08-26T02:55:42.316Z,21.75
2022-08-26T02:58:10.592Z,23.92
2022-08-26T03:00:39.413Z,23.08
2022-08-26T03:03:23.620Z,22.65
2022-08-26T03:05:54.276Z,21.70
2022-08-26T03:08:22.246Z,22.33
2022-08-26T03:10:49.396Z,26.23
2022-08-26T03:13:18.147Z,17.33
2022-08-26T03:15:45.969Z,15.50
2022-08-26T03:18:15.177Z,23.00
2022-08-26T03:20:42.263Z,21.63
2022-08-26T03:23:11.245Z,18.73
2022-08-26T03:25:38.660Z,18.85
2022-08-26T03:28:05.765Z,17.60
2022-08-26T03:30:44.873Z,26.60
2022-08-26T03:33:13.854Z,21.13
2022-08-26T03:35:43.721Z,16.95
2022-08-26T03:38:11.107Z,15.63
2022-08-26T03:40:39.009Z,18.02
2022-08-26T03:43:10.300Z,29.20
2022-08-26T03:45:38.985Z,26.83
2022-08-26T03:48:05.918Z,22.80
2022-08-26T03:50:34.268Z,20.73
2022-08-26T03:53:03.694Z,16.63
2022-08-26T03:55:33.074Z,21.35
2022-08-26T03:58:01.018Z,22.13
2022-08-26T04:00:28.688Z,15.48
2022-08-26T04:02:55.685Z,21.20
2022-08-26T04:05:23.792Z,19.13
2022-08-26T04:07:51.533Z,15.43
2022-08-26T04:10:28.716Z,17.90
2022-08-26T04:13:00.417Z,20.73
2022-08-26T04:15:27.757Z,43.15
2022-08-26T04:17:56.085Z,30.65
2022-08-26T04:20:26.521Z,21.13
2022-08-26T04:22:54.101Z,26.40
2022-08-26T04:25:21.285Z,19.25
2022-08-26T04:27:48.693Z,19.67
2022-08-26T04:30:18.415Z,16.65
2022-08-26T04:32:45.701Z,16.98
2022-08-26T04:35:13.006Z,19.88
2022-08-26T04:37:40.104Z,16.50
2022-08-26T04:40:11.209Z,18.98
2022-08-26T04:42:38.783Z,17.17
2022-08-26T04:45:10.282Z,15.70
2022-08-26T04:47:38.669Z,17.55
2022-08-26T04:50:07.688Z,20.00
2022-08-26T04:52:36.822Z,16.33
2022-08-26T04:55:06.553Z,19.27
2022-08-26T04:57:36.267Z,21.05
2022-08-26T05:00:06.833Z,18.30
2022-08-26T05:02:34.343Z,18.95
2022-08-26T05:05:01.702Z,19.38
2022-08-26T05:07:28.686Z,14.75
2022-08-26T05:09:55.694Z,20.80
2022-08-26T05:12:23.382Z,19.05
2022-08-26T05:14:50.810Z,16.10
2022-08-26T05:17:19.270Z,17.30
2022-08-26T05:19:47.261Z,15.25
2022-08-26T05:22:14.979Z,18.55
2022-08-26T05:24:42.220Z,20.80
2022-08-26T05:27:11.637Z,14.70
2022-08-26T05:29:41.459Z,16.73
2022-08-26T05:32:08.577Z,15.60
2022-08-26T05:34:38.510Z,20.95
2022-08-26T05:37:06.661Z,20.92
2022-08-26T05:39:34.210Z,15.40
2022-08-26T05:42:02.227Z,17.33
2022-08-26T05:44:29.259Z,19.85
2022-08-26T05:47:16.298Z,14.20
2022-08-26T05:49:51.404Z,15.60
2022-08-26T05:52:20.002Z,15.35
2022-08-26T05:54:47.650Z,14.15
2022-08-26T05:57:15.737Z,16.77
2022-08-26T05:59:43.044Z,13.77
2022-08-26T06:02:10.076Z,13.07
2022-08-26T06:04:37.430Z,19.65
2022-08-26T06:07:05.447Z,14.45
2022-08-26T06:09:37.409Z,15.23
2022-08-26T06:12:06.739Z,18.20
2022-08-26T06:14:33.719Z,17.70
2022-08-26T06:17:01.981Z,15.07
2022-08-26T06:19:34.297Z,14.48
2022-08-26T06:22:23.570Z,14.65
2022-08-26T06:25:17.345Z,14.43
2022-08-26T06:27:44.536Z,14.20
2022-08-26T06:30:12.355Z,15.20
2022-08-26T06:32:39.460Z,18.50
2022-08-26T06:35:07.413Z,12.93
2022-08-26T06:37:40.175Z,11.82
2022-08-26T06:40:09.085Z,15.02
2022-08-26T06:42:39.384Z,15.40
2022-08-26T06:45:07.499Z,13.05
2022-08-26T06:47:34.951Z,13.27
2022-08-26T06:50:02.949Z,12.65
2022-08-26T06:52:30.397Z,12.15
2022-08-26T06:54:57.628Z,14.98
2022-08-26T06:57:24.625Z,10.70
2022-08-26T06:59:51.818Z,12.10
2022-08-26T07:02:19.528Z,15.80
2022-08-26T07:04:48.000Z,12.98
2022-08-26T07:07:18.098Z,11.45
2022-08-26T07:09:48.963Z,17.65
2022-08-26T07:12:20.394Z,10.60
2022-08-26T07:14:48.243Z,10.52
2022-08-26T07:17:16.147Z,13.25
2022-08-26T07:19:43.786Z,10.30
2022-08-26T07:22:11.002Z,13.63
2022-08-26T07:24:41.109Z,11.20
2022-08-26T07:27:13.364Z,11.25
2022-08-26T07:29:42.337Z,9.73
2022-08-26T07:32:11.546Z,19.88
2022-08-26T07:34:39.847Z,9.15
2022-08-26T07:37:09.060Z,13.50
2022-08-26T07:39:36.378Z,11.95
2022-08-26T07:42:07.267Z,17.40
2022-08-26T07:44:36.888Z,11.05
2022-08-26T07:47:10.482Z,16.15
2022-08-26T07:49:52.726Z,13.25
2022-08-26T07:52:25.303Z,12.10
2022-08-26T07:54:55.508Z,7.47
2022-08-26T07:57:24.230Z,10.48
2022-08-26T07:59:52.123Z,9.00
2022-08-26T08:02:24.890Z,10.45
2022-08-26T08:04:54.609Z,9.82
2022-08-26T08:07:25.864Z,9.65
2022-08-26T08:10:11.304Z,9.55
2022-08-26T08:12:39.827Z,7.45
2022-08-26T08:15:07.737Z,10.88
2022-08-26T08:17:34.640Z,15.73
2022-08-26T08:20:03.013Z,7.32
2022-08-26T08:22:32.524Z,11.35
2022-08-26T08:25:00.023Z,9.50
2022-08-26T08:27:29.870Z,13.90
2022-08-26T08:29:57.283Z,7.57
2022-08-26T08:32:24.450Z,8.80
2022-08-26T08:34:51.687Z,10.63
2022-08-26T08:37:19.056Z,14.82
2022-08-26T08:39:45.949Z,7.78
2022-08-26T08:42:29.225Z,10.13
2022-08-26T08:44:59.421Z,8.82
2022-08-26T08:47:42.863Z,9.32
2022-08-26T08:50:32.004Z,12.95
2022-08-26T08:53:09.084Z,14.60
2022-08-26T08:55:48.184Z,8.63
2022-08-26T08:58:21.089Z,6.57
2022-08-26T09:01:03.019Z,10.18
2022-08-26T09:04:09.633Z,7.90
2022-08-26T09:06:38.891Z,7.47
2022-08-26T09:09:12.309Z,8.93
2022-08-26T09:11:39.529Z,12.68
2022-08-26T09:14:06.801Z,15.93
2022-08-26T09:16:49.140Z,14.25
2022-08-26T09:19:25.767Z,11.68
2022-08-26T09:22:01.582Z,6.97
2022-08-26T09:24:31.129Z,10.93
2022-08-26T09:26:59.324Z,15.65
2022-08-26T09:29:29.587Z,10.63
2022-08-26T09:32:22.110Z,6.93
2022-08-26T09:34:57.834Z,7.57
2022-08-26T09:37:39.329Z,11.25
2022-08-26T09:40:21.066Z,6.43
2022-08-26T09:43:07.720Z,13.00
2022-08-26T09:45:36.211Z,10.32
2022-08-26T09:48:04.897Z,9.63
2022-08-26T09:50:59.046Z,6.32
2022-08-26T09:53:49.583Z,11.57
2022-08-26T09:56:25.621Z,6.45
2022-08-26T09:58:56.641Z,8.25
2022-08-26T10:01:23.568Z,8.23
2022-08-26T10:03:51.511Z,6.78
2022-08-26T10:06:21.200Z,9.65
2022-08-26T10:09:10.921Z,8.52
2022-08-26T10:11:45.231Z,14.55
2022-08-26T10:14:39.560Z,7.07
2022-08-26T10:17:16.097Z,6.55
2022-08-26T10:19:56.689Z,12.90
2022-08-26T10:22:36.384Z,4.95
2022-08-26T10:25:09.921Z,6.90
2022-08-26T10:27:53.781Z,9.82
2022-08-26T10:30:47.801Z,6.15
2022-08-26T10:33:15.488Z,6.70
2022-08-26T10:36:02.296Z,11.15
2022-08-26T10:38:34.659Z,5.00
2022-08-26T10:41:09.807Z,4.90
2022-08-26T10:43:58.591Z,5.35
2022-08-26T10:46:34.444Z,21.73
2022-08-26T10:49:09.561Z,11.18
2022-08-26T10:51:58.483Z,9.57
2022-08-26T10:54:28.687Z,8.15
2022-08-26T10:57:22.450Z,7.70
2022-08-26T10:59:55.965Z,6.53
2022-08-26T11:02:48.327Z,6.45
2022-08-26T11:05:22.499Z,5.82
2022-08-26T11:07:54.928Z,6.80
2022-08-26T11:10:22.838Z,7.40
2022-08-26T11:12:58.293Z,9.10
2022-08-26T11:15:26.314Z,12.70
2022-08-26T11:17:55.317Z,7.80
2022-08-26T11:20:22.359Z,7.78
2022-08-26T11:22:51.848Z,7.20
2022-08-26T11:25:20.401Z,6.78
2022-08-26T11:27:57.496Z,12.88
2022-08-26T11:30:25.121Z,7.18
2022-08-26T11:32:57.241Z,9.73
2022-08-26T11:35:24.563Z,6.25
2022-08-26T11:37:56.626Z,8.32
2022-08-26T11:40:30.086Z,7.68
2022-08-26T11:43:00.703Z,7.43
2022-08-26T11:46:02.094Z,7.78
2022-08-26T11:48:39.043Z,25.45
2022-08-26T11:51:08.590Z,8.60
2022-08-26T11:53:38.921Z,6.35
2022-08-26T11:56:10.439Z,6.40
2022-08-26T11:58:47.068Z,7.93
2022-08-26T12:01:26.498Z,9.63
2022-08-26T12:03:56.783Z,8.68
2022-08-26T12:06:32.899Z,11.27
2022-08-26T12:09:02.704Z,8.65
2022-08-26T12:11:33.984Z,4.22
2022-08-26T12:14:04.772Z,4.85
2022-08-26T12:16:37.896Z,7.45
2022-08-26T12:19:32.639Z,10.10
2022-08-26T12:22:15.856Z,23.10
2022-08-26T12:24:47.762Z,12.10
2022-08-26T12:27:20.896Z,7.28
2022-08-26T12:30:13.881Z,13.68
2022-08-26T12:32:57.505Z,7.32
2022-08-26T12:35:26.074Z,6.03
2022-08-26T12:37:54.408Z,7.78
2022-08-26T12:43:59.095Z,10.95
2022-08-26T12:46:31.657Z,7.50
2022-08-26T12:49:01.818Z,10.55
2022-08-26T12:51:31.789Z,5.80
2022-08-26T12:53:59.418Z,5.82
2022-08-26T12:56:41.105Z,5.28
2022-08-26T12:59:25.196Z,7.38
2022-08-26T13:01:53.890Z,5.55
2022-08-26T13:04:38.093Z,7.03
2022-08-26T13:07:25.604Z,4.57
2022-08-26T13:09:58.184Z,3.60
2022-08-26T13:12:37.447Z,9.10
2022-08-26T13:15:05.791Z,5.15
2022-08-26T13:17:35.800Z,6.38
2022-08-26T13:20:04.293Z,4.70
2022-08-26T13:22:32.361Z,7.45
2022-08-26T13:24:59.859Z,5.93
2022-08-26T13:27:27.997Z,6.32
2022-08-26T13:29:57.673Z,9.30
2022-08-26T13:32:27.476Z,7.70
2022-08-26T13:34:56.724Z,5.20
2022-08-26T13:37:34.735Z,5.68
2022-08-26T13:40:05.802Z,6.28
2022-08-26T13:42:33.170Z,4.45
2022-08-26T13:45:02.393Z,6.18
2022-08-26T13:47:29.705Z,5.70
2022-08-26T13:49:56.929Z,8.77
2022-08-26T13:52:30.661Z,6.45
2022-08-26T13:55:01.805Z,3.53
2022-08-26T13:57:30.268Z,3.67
2022-08-26T13:59:59.426Z,5.38
2022-08-26T14:02:28.222Z,4.05
2022-08-26T14:04:55.381Z,7.40
2022-08-26T14:07:22.752Z,5.80
2022-08-26T14:09:49.923Z,6.65
2022-08-26T14:12:17.219Z,10.82
2022-08-26T14:14:44.234Z,6.57
2022-08-26T14:17:17.295Z,3.78
2022-08-26T14:19:47.110Z,8.40
2022-08-26T14:22:19.892Z,9.43
2022-08-26T14:24:47.502Z,5.28
2022-08-26T14:27:15.040Z,7.68
2022-08-26T14:29:42.886Z,5.55
2022-08-26T14:32:16.345Z,8.07
2022-08-26T14:34:46.093Z,3.88
2022-08-26T14:37:15.364Z,9.40
2022-08-26T14:39:42.708Z,8.10
2022-08-26T14:42:10.682Z,5.20
2022-08-26T14:44:37.710Z,5.95
2022-08-26T14:47:06.680Z,4.13
2022-08-26T14:49:34.309Z,5.95
2022-08-26T14:52:01.566Z,9.00
2022-08-26T14:54:29.516Z,6.22
2022-08-26T14:57:01.286Z,7.00
2022-08-26T14:59:37.155Z,11.90
2022-08-26T15:02:06.512Z,9.40
2022-08-26T15:04:34.754Z,6.80
2022-08-26T15:07:03.285Z,7.90
2022-08-26T15:09:33.404Z,6.47
2022-08-26T15:12:00.619Z,4.60
2022-08-26T15:14:32.274Z,6.80
2022-08-26T15:17:00.764Z,7.70
2022-08-26T15:19:28.228Z,5.07
2022-08-26T15:21:56.383Z,7.97
2022-08-26T15:24:26.601Z,8.50
2022-08-26T15:26:54.171Z,6.18
2022-08-26T15:29:22.750Z,6.97
2022-08-26T15:31:50.627Z,7.47
2022-08-26T15:34:17.861Z,5.88
2022-08-26T15:36:47.083Z,5.07
2022-08-26T15:39:16.384Z,5.45
2022-08-26T15:41:43.721Z,6.50
2022-08-26T15:44:11.969Z,6.85
2022-08-26T15:46:39.582Z,8.50
2022-08-26T15:49:07.548Z,7.70
2022-08-26T15:51:45.925Z,7.32
2022-08-26T15:54:16.015Z,6.75
2022-08-26T15:56:43.594Z,4.43
2022-08-26T15:59:11.750Z,6.55
2022-08-26T16:01:39.682Z,4.82
2022-08-26T16:04:07.220Z,5.35
2022-08-26T16:06:36.499Z,6.82
2022-08-26T16:09:05.359Z,6.85
2022-08-26T16:11:37.829Z,5.90
2022-08-26T16:14:06.029Z,7.05
2022-08-26T16:16:33.099Z,3.63
2022-08-26T16:19:04.300Z,6.95
2022-08-26T16:21:34.165Z,8.45
2022-08-26T16:24:01.149Z,6.40
2022-08-26T16:26:32.494Z,5.95
2022-08-26T16:29:06.584Z,9.27
2022-08-26T16:31:34.022Z,8.32
2022-08-26T16:34:01.620Z,5.05
2022-08-26T16:36:28.585Z,3.97
2022-08-26T16:38:56.627Z,5.78
2022-08-26T16:41:25.594Z,6.57
2022-08-26T16:43:53.785Z,5.50
2022-08-26T16:46:23.687Z,4.85
2022-08-26T16:48:55.198Z,5.78
2022-08-26T16:51:23.691Z,8.63
2022-08-26T16:53:52.468Z,5.15
2022-08-26T16:56:22.641Z,5.80
2022-08-26T16:58:50.761Z,7.30
2022-08-26T17:01:18.621Z,7.85
2022-08-26T17:03:45.846Z,4.82
2022-08-26T17:06:13.533Z,7.97
2022-08-26T17:08:42.000Z,5.50
2022-08-26T17:11:09.551Z,7.00
2022-08-26T17:13:38.148Z,5.97
2022-08-26T17:16:08.031Z,10.35
2022-08-26T17:18:36.605Z,5.18
2022-08-26T17:21:09.765Z,11.60
2022-08-26T17:23:41.029Z,4.75
2022-08-26T17:26:09.232Z,9.95
2022-08-26T17:28:36.272Z,6.60
2022-08-26T17:31:06.954Z,8.10
2022-08-26T17:33:34.081Z,8.68
2022-08-26T17:36:01.470Z,9.13
2022-08-26T17:38:29.212Z,7.28
2022-08-26T17:40:57.823Z,10.15
2022-08-26T17:43:26.801Z,7.45
2022-08-26T17:45:58.822Z,6.05
2022-08-26T17:48:35.756Z,10.07
2022-08-26T17:51:11.329Z,6.65
2022-08-26T17:53:38.865Z,11.20
2022-08-26T17:56:08.301Z,9.30
2022-08-26T17:58:35.623Z,7.45
2022-08-26T18:01:03.130Z,4.05
2022-08-26T18:03:30.220Z,5.40
2022-08-26T18:05:57.737Z,8.40
2022-08-26T18:08:24.940Z,11.63
2022-08-26T18:10:52.305Z,11.00
2022-08-26T18:13:19.299Z,9.52
2022-08-26T18:15:47.101Z,5.68
2022-08-26T18:18:15.480Z,16.95
2022-08-26T18:20:44.536Z,9.43
2022-08-26T18:23:12.845Z,9.32
2022-08-26T18:25:42.798Z,11.65
2022-08-26T18:28:09.822Z,8.73
2022-08-26T18:30:37.062Z,6.13
2022-08-26T18:33:04.430Z,5.95
2022-08-26T18:35:31.488Z,5.43
2022-08-26T18:38:01.469Z,10.95
2022-08-26T18:40:44.165Z,14.15
2022-08-26T18:43:11.998Z,5.78
2022-08-26T18:45:39.470Z,16.48
2022-08-26T18:48:06.670Z,6.25
2022-08-26T18:50:33.826Z,13.13
2022-08-26T18:53:02.579Z,8.77
2022-08-26T18:55:29.760Z,8.23
2022-08-26T18:57:56.995Z,7.60
2022-08-26T19:00:24.341Z,17.27
2022-08-26T19:02:52.053Z,9.25
2022-08-26T19:05:23.100Z,11.80
2022-08-26T19:07:52.716Z,8.02
2022-08-26T19:10:19.884Z,6.65
2022-08-26T19:12:46.930Z,9.32
2022-08-26T19:15:19.623Z,11.25
2022-08-26T19:17:46.995Z,8.55
2022-08-26T19:20:14.764Z,10.50
2022-08-26T19:22:42.412Z,7.80
2022-08-26T19:25:09.996Z,8.32
2022-08-26T19:27:37.504Z,10.57
2022-08-26T19:30:06.583Z,8.82
2022-08-26T19:32:33.528Z,11.40
2022-08-26T19:35:00.520Z,9.00
2022-08-26T19:37:28.899Z,9.05
2022-08-26T19:39:56.222Z,7.03
2022-08-26T19:42:23.489Z,10.68
2022-08-26T19:45:24.281Z,11.82
2022-08-26T19:47:53.119Z,13.40
2022-08-26T19:50:22.067Z,6.50
2022-08-26T19:52:49.406Z,11.93
2022-08-26T19:55:18.609Z,9.52
2022-08-26T19:57:45.991Z,8.15
2022-08-26T20:00:16.815Z,9.35
2022-08-26T20:02:44.486Z,12.65
2022-08-26T20:05:14.163Z,5.72
2022-08-26T20:07:41.904Z,11.73
2022-08-26T20:10:15.718Z,13.55
2022-08-26T20:12:43.259Z,13.00
2022-08-26T20:15:12.319Z,9.82
2022-08-26T20:17:40.626Z,9.02
2022-08-26T20:20:33.491Z,12.48
2022-08-26T20:23:03.676Z,9.00
2022-08-26T20:25:32.625Z,9.32
2022-08-26T20:28:00.964Z,5.35
2022-08-26T20:30:28.139Z,7.35
2022-08-26T20:32:57.879Z,8.10
2022-08-26T20:35:26.463Z,8.50
2022-08-26T20:37:53.496Z,14.93
2022-08-26T20:40:22.199Z,6.85
2022-08-26T20:42:49.670Z,11.48
2022-08-26T20:45:17.071Z,8.95
2022-08-26T20:47:44.549Z,13.77
2022-08-26T20:50:11.876Z,10.82
2022-08-26T20:52:38.870Z,6.75
2022-08-26T20:55:06.755Z,11.98
2022-08-26T20:57:33.720Z,16.55
2022-08-26T21:00:01.102Z,13.25
2022-08-26T21:02:28.571Z,12.35
2022-08-26T21:04:55.940Z,8.27
2022-08-26T21:07:23.821Z,7.97
2022-08-26T21:09:52.124Z,12.27
2022-08-26T21:12:19.746Z,8.20
2022-08-26T21:14:49.631Z,11.43
2022-08-26T21:17:17.595Z,11.70
2022-08-26T21:19:45.572Z,10.05
2022-08-26T21:22:13.066Z,9.10
2022-08-26T21:24:40.631Z,8.80
2022-08-26T21:27:07.672Z,7.68
2022-08-26T21:29:36.988Z,9.63
2022-08-26T21:32:06.422Z,9.57
2022-08-26T21:34:33.492Z,8.40
2022-08-26T21:37:01.204Z,10.70
2022-08-26T21:39:32.899Z,9.80
2022-08-26T21:42:00.062Z,7.03
2022-08-26T21:44:27.739Z,12.05
2022-08-26T21:46:55.845Z,9.32
2022-08-26T21:49:22.999Z,11.88
2022-08-26T21:51:53.448Z,8.43
2022-08-26T21:54:20.955Z,12.18
2022-08-26T21:56:50.199Z,16.20
2022-08-26T21:59:18.794Z,11.05
2022-08-26T22:01:47.295Z,15.75
2022-08-26T22:04:15.711Z,9.75
2022-08-26T22:06:46.425Z,10.05
2022-08-26T22:09:15.985Z,7.63
2022-08-26T22:11:43.485Z,9.15
2022-08-26T22:14:11.294Z,11.38
2022-08-26T22:16:39.094Z,8.93
2022-08-26T22:19:06.551Z,16.38
2022-08-26T22:21:35.720Z,10.90
2022-08-26T22:24:03.247Z,10.98
2022-08-26T22:26:32.480Z,8.10
2022-08-26T22:29:01.070Z,11.60
2022-08-26T22:31:37.230Z,9.68
2022-08-26T22:34:09.089Z,12.60
2022-08-26T22:36:43.074Z,11.82
2022-08-26T22:39:17.968Z,13.25
2022-08-26T22:41:46.648Z,15.75
2022-08-26T22:44:13.619Z,11.20
2022-08-26T22:46:42.060Z,10.00
2022-08-26T22:49:10.987Z,12.77
2022-08-26T22:51:38.059Z,11.00
2022-08-26T22:54:05.844Z,14.32
2022-08-26T22:56:33.108Z,16.40
2022-08-26T22:59:00.230Z,15.93
2022-08-26T23:01:27.363Z,17.35
2022-08-26T23:03:54.553Z,12.55
2022-08-26T23:06:21.887Z,11.23
2022-08-26T23:08:49.445Z,8.45
2022-08-26T23:11:17.434Z,9.23
2022-08-26T23:13:44.387Z,10.10
2022-08-26T23:16:12.682Z,10.23
2022-08-26T23:18:41.081Z,11.25
2022-08-26T23:21:08.949Z,11.02
2022-08-26T23:23:38.358Z,14.25
2022-08-26T23:26:08.132Z,11.23
2022-08-26T23:28:37.667Z,10.48
2022-08-26T23:31:05.825Z,12.35
2022-08-26T23:33:51.343Z,8.43
2022-08-26T23:36:22.985Z,9.48
2022-08-26T23:38:53.159Z,10.15
2022-08-26T23:41:22.509Z,8.80
2022-08-26T23:43:50.518Z,7.72
2022-08-26T23:46:18.310Z,9.38
2022-08-26T23:48:45.445Z,10.20
2022-08-26T23:51:31.454Z,10.77
2022-08-26T23:53:58.676Z,12.43
2022-08-26T23:56:26.650Z,15.18
2022-08-26T23:58:54.787Z,10.80
